sensor_id;sensor_type;location;lat;lon;timestamp;P1;durP1;ratioP1;P2;durP2;ratioP2
23670;SDS011;12012;51.998;7.614;2023-05-15T00:00:25;12.90;;;11.55;;
23670;SDS011;12012;51.998;7.614;2023-05-15T00:02:51;11.93;;;10.68;;
23670;SDS011;12012;51.998;7.614;2023-05-15T00:05:17;11.23;;;10.13;;
23670;SDS011;12012;51.998;7.614;2023-05-15T00:07:43;10.40;;;9.30;;
23670;SDS011;12012;51.998;7.614;2023-05-15T00:10:08;10.45;;;9.45;;
23670;SDS011;12012;51.998;7.614;2023-05-15T00:12:34;10.55;;;9.52;;
23670;SDS011;12012;51.998;7.614;2023-05-15T00:15:00;10.05;;;9.15;;
23670;SDS011;12012;51.998;7.614;2023-05-15T00:17:26;11.82;;;10.63;;
23670;SDS011;12012;51.998;7.614;2023-05-15T00:19:51;15.65;;;13.88;;
23670;SDS011;12012;51.998;7.614;2023-05-15T00:22:21;14.52;;;13.07;;
23670;SDS011;12012;51.998;7.614;2023-05-15T00:24:47;10.40;;;9.40;;
23670;SDS011;12012;51.998;7.614;2023-05-15T00:27:12;10.60;;;9.60;;
23670;SDS011;12012;51.998;7.614;2023-05-15T00:29:38;11.48;;;10.45;;
23670;SDS011;12012;51.998;7.614;2023-05-15T00:32:04;10.55;;;9.48;;
23670;SDS011;12012;51.998;7.614;2023-05-15T00:34:29;11.27;;;10.07;;
23670;SDS011;12012;51.998;7.614;2023-05-15T00:36:55;11.70;;;10.43;;
23670;SDS011;12012;51.998;7.614;2023-05-15T00:39:21;10.98;;;9.88;;
23670;SDS011;12012;51.998;7.614;2023-05-15T00:41:46;12.35;;;11.15;;
23670;SDS011;12012;51.998;7.614;2023-05-15T00:44:14;14.07;;;12.68;;
23670;SDS011;12012;51.998;7.614;2023-05-15T00:46:41;12.50;;;11.20;;
23670;SDS011;12012;51.998;7.614;2023-05-15T00:49:10;15.98;;;10.57;;
23670;SDS011;12012;51.998;7.614;2023-05-15T00:51:41;12.95;;;11.57;;
23670;SDS011;12012;51.998;7.614;2023-05-15T00:54:08;12.70;;;11.48;;
23670;SDS011;12012;51.998;7.614;2023-05-15T00:56:34;15.27;;;12.75;;
23670;SDS011;12012;51.998;7.614;2023-05-15T00:59:01;12.77;;;11.57;;
23670;SDS011;12012;51.998;7.614;2023-05-15T01:01:27;14.13;;;11.32;;
23670;SDS011;12012;51.998;7.614;2023-05-15T01:03:58;11.93;;;10.73;;
23670;SDS011;12012;51.998;7.614;2023-05-15T01:06:28;10.32;;;9.32;;
23670;SDS011;12012;51.998;7.614;2023-05-15T01:08:55;12.48;;;11.27;;
23670;SDS011;12012;51.998;7.614;2023-05-15T01:11:23;12.70;;;11.45;;
23670;SDS011;12012;51.998;7.614;2023-05-15T01:13:52;11.13;;;10.13;;
23670;SDS011;12012;51.998;7.614;2023-05-15T01:16:19;17.75;;;12.25;;
23670;SDS011;12012;51.998;7.614;2023-05-15T01:18:46;12.40;;;10.65;;
23670;SDS011;12012;51.998;7.614;2023-05-15T01:29:36;10.77;;;9.77;;
23670;SDS011;12012;51.998;7.614;2023-05-15T01:32:11;13.33;;;12.03;;
23670;SDS011;12012;51.998;7.614;2023-05-15T01:34:52;14.07;;;12.57;;
23670;SDS011;12012;51.998;7.614;2023-05-15T01:37:19;12.10;;;10.90;;
23670;SDS011;12012;51.998;7.614;2023-05-15T01:39:48;18.85;;;14.95;;
23670;SDS011;12012;51.998;7.614;2023-05-15T01:42:17;14.25;;;12.70;;
23670;SDS011;12012;51.998;7.614;2023-05-15T01:44:50;11.50;;;10.40;;
23670;SDS011;12012;51.998;7.614;2023-05-15T01:47:20;14.02;;;12.68;;
23670;SDS011;12012;51.998;7.614;2023-05-15T01:49:51;12.93;;;11.68;;
23670;SDS011;12012;51.998;7.614;2023-05-15T01:52:22;15.23;;;13.32;;
23670;SDS011;12012;51.998;7.614;2023-05-15T01:54:52;18.15;;;15.93;;
23670;SDS011;12012;51.998;7.614;2023-05-15T01:57:19;13.80;;;12.20;;
23670;SDS011;12012;51.998;7.614;2023-05-15T01:59:46;15.32;;;13.82;;
23670;SDS011;12012;51.998;7.614;2023-05-15T02:02:12;17.95;;;16.13;;
23670;SDS011;12012;51.998;7.614;2023-05-15T02:04:39;15.07;;;13.20;;
23670;SDS011;12012;51.998;7.614;2023-05-15T02:07:06;17.92;;;16.05;;
23670;SDS011;12012;51.998;7.614;2023-05-15T02:09:32;21.50;;;19.30;;
23670;SDS011;12012;51.998;7.614;2023-05-15T02:11:59;21.38;;;16.67;;
23670;SDS011;12012;51.998;7.614;2023-05-15T02:14:27;20.05;;;16.42;;
23670;SDS011;12012;51.998;7.614;2023-05-15T02:16:53;32.38;;;24.08;;
23670;SDS011;12012;51.998;7.614;2023-05-15T02:19:19;22.67;;;18.08;;
23670;SDS011;12012;51.998;7.614;2023-05-15T02:21:45;20.60;;;18.20;;
23670;SDS011;12012;51.998;7.614;2023-05-15T02:24:11;24.48;;;20.38;;
23670;SDS011;12012;51.998;7.614;2023-05-15T02:29:55;30.23;;;25.50;;
23670;SDS011;12012;51.998;7.614;2023-05-15T02:35:36;28.38;;;25.30;;
23670;SDS011;12012;51.998;7.614;2023-05-15T02:38:16;29.50;;;25.60;;
23670;SDS011;12012;51.998;7.614;2023-05-15T02:40:47;26.20;;;22.63;;
23670;SDS011;12012;51.998;7.614;2023-05-15T02:43:14;32.58;;;27.48;;
23670;SDS011;12012;51.998;7.614;2023-05-15T02:49:04;32.67;;;28.42;;
23670;SDS011;12012;51.998;7.614;2023-05-15T02:51:31;34.67;;;28.00;;
23670;SDS011;12012;51.998;7.614;2023-05-15T02:53:58;26.05;;;22.38;;
23670;SDS011;12012;51.998;7.614;2023-05-15T02:56:25;33.03;;;28.23;;
23670;SDS011;12012;51.998;7.614;2023-05-15T02:58:50;36.45;;;30.73;;
23670;SDS011;12012;51.998;7.614;2023-05-15T03:01:16;35.95;;;27.70;;
23670;SDS011;12012;51.998;7.614;2023-05-15T03:03:41;35.97;;;28.40;;
23670;SDS011;12012;51.998;7.614;2023-05-15T03:06:07;39.70;;;32.03;;
23670;SDS011;12012;51.998;7.614;2023-05-15T03:08:32;32.92;;;25.63;;
23670;SDS011;12012;51.998;7.614;2023-05-15T03:10:58;47.75;;;39.88;;
23670;SDS011;12012;51.998;7.614;2023-05-15T03:13:23;53.33;;;41.08;;
23670;SDS011;12012;51.998;7.614;2023-05-15T03:15:49;40.60;;;32.60;;
23670;SDS011;12012;51.998;7.614;2023-05-15T03:18:15;48.20;;;38.22;;
23670;SDS011;12012;51.998;7.614;2023-05-15T03:20:42;53.00;;;39.50;;
23670;SDS011;12012;51.998;7.614;2023-05-15T03:23:08;56.28;;;41.78;;
23670;SDS011;12012;51.998;7.614;2023-05-15T03:25:33;59.20;;;43.63;;
23670;SDS011;12012;51.998;7.614;2023-05-15T03:27:59;43.50;;;34.05;;
23670;SDS011;12012;51.998;7.614;2023-05-15T03:30:24;60.42;;;45.03;;
23670;SDS011;12012;51.998;7.614;2023-05-15T03:32:50;63.33;;;47.55;;
23670;SDS011;12012;51.998;7.614;2023-05-15T03:35:16;64.53;;;46.22;;
23670;SDS011;12012;51.998;7.614;2023-05-15T03:37:41;74.32;;;52.30;;
23670;SDS011;12012;51.998;7.614;2023-05-15T03:40:07;68.53;;;49.20;;
23670;SDS011;12012;51.998;7.614;2023-05-15T03:42:33;80.32;;;57.83;;
23670;SDS011;12012;51.998;7.614;2023-05-15T03:44:58;62.95;;;44.72;;
23670;SDS011;12012;51.998;7.614;2023-05-15T03:47:24;77.47;;;55.05;;
23670;SDS011;12012;51.998;7.614;2023-05-15T03:49:50;64.25;;;45.80;;
23670;SDS011;12012;51.998;7.614;2023-05-15T03:52:15;61.78;;;45.22;;
23670;SDS011;12012;51.998;7.614;2023-05-15T03:54:41;77.25;;;53.83;;
23670;SDS011;12012;51.998;7.614;2023-05-15T03:57:07;81.18;;;54.60;;
23670;SDS011;12012;51.998;7.614;2023-05-15T03:59:33;67.18;;;45.97;;
23670;SDS011;12012;51.998;7.614;2023-05-15T04:01:58;68.13;;;49.00;;
23670;SDS011;12012;51.998;7.614;2023-05-15T04:04:24;79.82;;;56.17;;
23670;SDS011;12012;51.998;7.614;2023-05-15T04:06:50;60.45;;;44.45;;
23670;SDS011;12012;51.998;7.614;2023-05-15T04:09:15;70.68;;;48.08;;
23670;SDS011;12012;51.998;7.614;2023-05-15T04:11:41;79.57;;;55.35;;
23670;SDS011;12012;51.998;7.614;2023-05-15T04:14:06;91.25;;;61.75;;
23670;SDS011;12012;51.998;7.614;2023-05-15T04:16:32;78.28;;;55.95;;
23670;SDS011;12012;51.998;7.614;2023-05-15T04:18:58;74.32;;;52.85;;
23670;SDS011;12012;51.998;7.614;2023-05-15T04:21:24;93.40;;;63.25;;
23670;SDS011;12012;51.998;7.614;2023-05-15T04:23:49;87.97;;;60.15;;
23670;SDS011;12012;51.998;7.614;2023-05-15T04:26:15;70.18;;;49.72;;
23670;SDS011;12012;51.998;7.614;2023-05-15T04:28:40;75.57;;;53.08;;
23670;SDS011;12012;51.998;7.614;2023-05-15T04:31:06;73.00;;;50.95;;
23670;SDS011;12012;51.998;7.614;2023-05-15T04:33:32;89.55;;;58.63;;
23670;SDS011;12012;51.998;7.614;2023-05-15T04:35:57;79.75;;;53.92;;
23670;SDS011;12012;51.998;7.614;2023-05-15T04:38:23;68.25;;;49.35;;
23670;SDS011;12012;51.998;7.614;2023-05-15T04:40:49;81.20;;;53.05;;
23670;SDS011;12012;51.998;7.614;2023-05-15T04:43:15;84.47;;;54.92;;
23670;SDS011;12012;51.998;7.614;2023-05-15T04:45:40;91.97;;;60.63;;
23670;SDS011;12012;51.998;7.614;2023-05-15T04:48:06;86.25;;;56.90;;
23670;SDS011;12012;51.998;7.614;2023-05-15T04:50:31;90.95;;;60.33;;
23670;SDS011;12012;51.998;7.614;2023-05-15T04:52:57;91.35;;;60.78;;
23670;SDS011;12012;51.998;7.614;2023-05-15T04:55:23;71.90;;;49.05;;
23670;SDS011;12012;51.998;7.614;2023-05-15T04:57:48;82.85;;;53.20;;
23670;SDS011;12012;51.998;7.614;2023-05-15T05:00:14;110.32;;;57.95;;
23670;SDS011;12012;51.998;7.614;2023-05-15T05:02:40;117.43;;;55.92;;
23670;SDS011;12012;51.998;7.614;2023-05-15T05:05:09;148.10;;;56.78;;
23670;SDS011;12012;51.998;7.614;2023-05-15T05:07:35;130.40;;;58.47;;
23670;SDS011;12012;51.998;7.614;2023-05-15T05:10:01;107.80;;;56.17;;
23670;SDS011;12012;51.998;7.614;2023-05-15T05:12:27;156.52;;;57.90;;
23670;SDS011;12012;51.998;7.614;2023-05-15T05:14:52;94.05;;;52.60;;
23670;SDS011;12012;51.998;7.614;2023-05-15T05:17:19;159.63;;;57.70;;
23670;SDS011;12012;51.998;7.614;2023-05-15T05:19:45;93.68;;;51.28;;
23670;SDS011;12012;51.998;7.614;2023-05-15T05:22:10;80.97;;;50.33;;
23670;SDS011;12012;51.998;7.614;2023-05-15T05:24:36;90.88;;;51.33;;
23670;SDS011;12012;51.998;7.614;2023-05-15T05:27:01;92.18;;;53.17;;
23670;SDS011;12012;51.998;7.614;2023-05-15T05:29:28;64.65;;;42.70;;
23670;SDS011;12012;51.998;7.614;2023-05-15T05:31:54;93.60;;;53.67;;
23670;SDS011;12012;51.998;7.614;2023-05-15T05:34:20;83.57;;;51.88;;
23670;SDS011;12012;51.998;7.614;2023-05-15T05:36:46;93.60;;;56.13;;
23670;SDS011;12012;51.998;7.614;2023-05-15T05:39:12;97.57;;;54.58;;
23670;SDS011;12012;51.998;7.614;2023-05-15T05:41:40;99.28;;;51.92;;
23670;SDS011;12012;51.998;7.614;2023-05-15T05:44:05;75.45;;;49.60;;
23670;SDS011;12012;51.998;7.614;2023-05-15T05:46:31;76.93;;;48.45;;
23670;SDS011;12012;51.998;7.614;2023-05-15T05:48:56;131.48;;;53.90;;
23670;SDS011;12012;51.998;7.614;2023-05-15T05:51:22;93.03;;;51.65;;
23670;SDS011;12012;51.998;7.614;2023-05-15T05:53:48;82.53;;;53.55;;
23670;SDS011;12012;51.998;7.614;2023-05-15T05:56:13;85.22;;;50.47;;
23670;SDS011;12012;51.998;7.614;2023-05-15T05:58:39;86.22;;;51.88;;
23670;SDS011;12012;51.998;7.614;2023-05-15T06:01:04;74.88;;;50.80;;
23670;SDS011;12012;51.998;7.614;2023-05-15T06:03:30;143.55;;;50.65;;
23670;SDS011;12012;51.998;7.614;2023-05-15T06:05:56;95.65;;;51.55;;
23670;SDS011;12012;51.998;7.614;2023-05-15T06:08:22;78.05;;;48.85;;
23670;SDS011;12012;51.998;7.614;2023-05-15T06:10:47;78.28;;;49.05;;
23670;SDS011;12012;51.998;7.614;2023-05-15T06:13:13;68.75;;;42.33;;
23670;SDS011;12012;51.998;7.614;2023-05-15T06:15:39;66.70;;;46.38;;
23670;SDS011;12012;51.998;7.614;2023-05-15T06:18:05;67.53;;;46.55;;
23670;SDS011;12012;51.998;7.614;2023-05-15T06:20:31;82.75;;;46.75;;
23670;SDS011;12012;51.998;7.614;2023-05-15T06:22:56;70.30;;;47.80;;
23670;SDS011;12012;51.998;7.614;2023-05-15T06:25:22;67.22;;;46.10;;
23670;SDS011;12012;51.998;7.614;2023-05-15T06:27:47;72.53;;;44.83;;
23670;SDS011;12012;51.998;7.614;2023-05-15T06:30:13;53.95;;;38.25;;
23670;SDS011;12012;51.998;7.614;2023-05-15T06:32:39;74.22;;;45.78;;
23670;SDS011;12012;51.998;7.614;2023-05-15T06:35:06;63.80;;;41.67;;
23670;SDS011;12012;51.998;7.614;2023-05-15T06:37:32;66.85;;;44.60;;
23670;SDS011;12012;51.998;7.614;2023-05-15T06:39:58;54.72;;;38.65;;
23670;SDS011;12012;51.998;7.614;2023-05-15T06:42:24;61.22;;;43.15;;
23670;SDS011;12012;51.998;7.614;2023-05-15T06:44:49;58.72;;;41.20;;
23670;SDS011;12012;51.998;7.614;2023-05-15T06:47:15;50.83;;;37.03;;
23670;SDS011;12012;51.998;7.614;2023-05-15T06:49:40;52.13;;;40.15;;
23670;SDS011;12012;51.998;7.614;2023-05-15T06:52:06;50.80;;;36.97;;
23670;SDS011;12012;51.998;7.614;2023-05-15T06:54:32;59.53;;;43.08;;
23670;SDS011;12012;51.998;7.614;2023-05-15T06:56:57;54.20;;;41.53;;
23670;SDS011;12012;51.998;7.614;2023-05-15T06:59:23;48.40;;;38.42;;
23670;SDS011;12012;51.998;7.614;2023-05-15T07:01:49;43.72;;;33.55;;
23670;SDS011;12012;51.998;7.614;2023-05-15T07:04:14;45.22;;;34.97;;
23670;SDS011;12012;51.998;7.614;2023-05-15T07:06:40;51.85;;;37.95;;
23670;SDS011;12012;51.998;7.614;2023-05-15T07:09:06;47.72;;;37.13;;
23670;SDS011;12012;51.998;7.614;2023-05-15T07:11:32;38.90;;;30.35;;
23670;SDS011;12012;51.998;7.614;2023-05-15T07:14:01;40.53;;;30.85;;
23670;SDS011;12012;51.998;7.614;2023-05-15T07:16:27;42.78;;;33.65;;
23670;SDS011;12012;51.998;7.614;2023-05-15T07:18:53;39.63;;;30.77;;
23670;SDS011;12012;51.998;7.614;2023-05-15T07:21:19;39.22;;;30.48;;
23670;SDS011;12012;51.998;7.614;2023-05-15T07:23:45;39.97;;;31.90;;
23670;SDS011;12012;51.998;7.614;2023-05-15T07:26:12;44.40;;;34.67;;
23670;SDS011;12012;51.998;7.614;2023-05-15T07:28:38;37.15;;;29.52;;
23670;SDS011;12012;51.998;7.614;2023-05-15T07:31:03;38.90;;;30.80;;
23670;SDS011;12012;51.998;7.614;2023-05-15T07:33:29;38.05;;;31.08;;
23670;SDS011;12012;51.998;7.614;2023-05-15T07:35:55;43.40;;;33.88;;
23670;SDS011;12012;51.998;7.614;2023-05-15T07:38:20;41.92;;;33.58;;
23670;SDS011;12012;51.998;7.614;2023-05-15T07:40:46;47.30;;;37.13;;
23670;SDS011;12012;51.998;7.614;2023-05-15T07:43:11;42.45;;;33.38;;
23670;SDS011;12012;51.998;7.614;2023-05-15T07:45:37;39.08;;;30.40;;
23670;SDS011;12012;51.998;7.614;2023-05-15T07:48:12;38.63;;;30.63;;
23670;SDS011;12012;51.998;7.614;2023-05-15T07:50:39;42.20;;;33.22;;
23670;SDS011;12012;51.998;7.614;2023-05-15T07:53:04;45.20;;;35.15;;
23670;SDS011;12012;51.998;7.614;2023-05-15T07:55:30;39.13;;;29.77;;
23670;SDS011;12012;51.998;7.614;2023-05-15T07:57:55;46.78;;;36.80;;
23670;SDS011;12012;51.998;7.614;2023-05-15T08:00:21;44.63;;;35.40;;
23670;SDS011;12012;51.998;7.614;2023-05-15T08:02:47;41.95;;;33.15;;
23670;SDS011;12012;51.998;7.614;2023-05-15T08:05:13;45.45;;;35.10;;
23670;SDS011;12012;51.998;7.614;2023-05-15T08:07:38;41.75;;;33.17;;
23670;SDS011;12012;51.998;7.614;2023-05-15T08:10:05;39.55;;;32.13;;
23670;SDS011;12012;51.998;7.614;2023-05-15T08:12:31;38.55;;;30.88;;
23670;SDS011;12012;51.998;7.614;2023-05-15T08:14:57;44.45;;;33.53;;
23670;SDS011;12012;51.998;7.614;2023-05-15T08:17:23;40.08;;;30.95;;
23670;SDS011;12012;51.998;7.614;2023-05-15T08:19:49;38.72;;;30.92;;
23670;SDS011;12012;51.998;7.614;2023-05-15T08:22:15;37.08;;;28.70;;
23670;SDS011;12012;51.998;7.614;2023-05-15T08:24:40;38.55;;;29.08;;
23670;SDS011;12012;51.998;7.614;2023-05-15T08:27:07;41.92;;;33.97;;
23670;SDS011;12012;51.998;7.614;2023-05-15T08:29:36;38.17;;;30.55;;
23670;SDS011;12012;51.998;7.614;2023-05-15T08:32:02;38.88;;;30.23;;
23670;SDS011;12012;51.998;7.614;2023-05-15T08:34:29;41.28;;;33.30;;
23670;SDS011;12012;51.998;7.614;2023-05-15T08:36:55;40.97;;;31.83;;
23670;SDS011;12012;51.998;7.614;2023-05-15T08:39:21;37.15;;;29.17;;
23670;SDS011;12012;51.998;7.614;2023-05-15T08:41:52;38.92;;;30.20;;
23670;SDS011;12012;51.998;7.614;2023-05-15T08:44:22;36.53;;;27.48;;
23670;SDS011;12012;51.998;7.614;2023-05-15T08:46:48;40.42;;;32.05;;
23670;SDS011;12012;51.998;7.614;2023-05-15T08:52:11;38.25;;;31.50;;
23670;SDS011;12012;51.998;7.614;2023-05-15T08:54:37;39.78;;;32.38;;
23670;SDS011;12012;51.998;7.614;2023-05-15T08:57:04;36.65;;;29.85;;
23670;SDS011;12012;51.998;7.614;2023-05-15T08:59:31;40.40;;;33.40;;
23670;SDS011;12012;51.998;7.614;2023-05-15T09:01:57;41.78;;;33.97;;
23670;SDS011;12012;51.998;7.614;2023-05-15T09:04:23;39.67;;;31.30;;
23670;SDS011;12012;51.998;7.614;2023-05-15T09:06:49;37.28;;;29.05;;
23670;SDS011;12012;51.998;7.614;2023-05-15T09:09:15;34.25;;;27.85;;
23670;SDS011;12012;51.998;7.614;2023-05-15T09:11:42;39.30;;;31.40;;
23670;SDS011;12012;51.998;7.614;2023-05-15T09:14:09;36.80;;;30.33;;
23670;SDS011;12012;51.998;7.614;2023-05-15T09:16:35;32.33;;;26.33;;
23670;SDS011;12012;51.998;7.614;2023-05-15T09:19:01;31.20;;;25.88;;
23670;SDS011;12012;51.998;7.614;2023-05-15T09:21:28;35.47;;;28.67;;
23670;SDS011;12012;51.998;7.614;2023-05-15T09:24:14;34.92;;;27.10;;
23670;SDS011;12012;51.998;7.614;2023-05-15T09:27:00;37.15;;;29.83;;
23670;SDS011;12012;51.998;7.614;2023-05-15T09:29:27;35.90;;;29.42;;
23670;SDS011;12012;51.998;7.614;2023-05-15T09:31:54;36.63;;;28.90;;
23670;SDS011;12012;51.998;7.614;2023-05-15T09:34:39;33.13;;;27.50;;
23670;SDS011;12012;51.998;7.614;2023-05-15T09:37:07;29.67;;;24.77;;
23670;SDS011;12012;51.998;7.614;2023-05-15T09:39:41;33.17;;;27.58;;
23670;SDS011;12012;51.998;7.614;2023-05-15T09:42:08;36.67;;;29.58;;
23670;SDS011;12012;51.998;7.614;2023-05-15T09:44:44;33.58;;;28.65;;
23670;SDS011;12012;51.998;7.614;2023-05-15T09:47:13;36.33;;;30.10;;
23670;SDS011;12012;51.998;7.614;2023-05-15T09:49:44;31.83;;;26.60;;
23670;SDS011;12012;51.998;7.614;2023-05-15T09:52:10;32.10;;;27.15;;
23670;SDS011;12012;51.998;7.614;2023-05-15T09:54:36;32.75;;;27.98;;
23670;SDS011;12012;51.998;7.614;2023-05-15T09:57:08;30.92;;;27.60;;
23670;SDS011;12012;51.998;7.614;2023-05-15T09:59:42;25.30;;;22.60;;
23670;SDS011;12012;51.998;7.614;2023-05-15T10:02:10;28.52;;;25.45;;
23670;SDS011;12012;51.998;7.614;2023-05-15T10:04:39;27.00;;;24.20;;
23670;SDS011;12012;51.998;7.614;2023-05-15T10:07:06;25.83;;;23.17;;
23670;SDS011;12012;51.998;7.614;2023-05-15T10:09:32;23.80;;;21.40;;
23670;SDS011;12012;51.998;7.614;2023-05-15T10:11:58;27.58;;;23.95;;
23670;SDS011;12012;51.998;7.614;2023-05-15T10:14:23;24.90;;;22.30;;
23670;SDS011;12012;51.998;7.614;2023-05-15T10:16:51;27.45;;;24.55;;
23670;SDS011;12012;51.998;7.614;2023-05-15T10:19:19;25.42;;;22.75;;
23670;SDS011;12012;51.998;7.614;2023-05-15T10:21:48;25.75;;;23.05;;
23670;SDS011;12012;51.998;7.614;2023-05-15T10:24:17;22.05;;;19.70;;
23670;SDS011;12012;51.998;7.614;2023-05-15T10:26:45;25.35;;;22.83;;
23670;SDS011;12012;51.998;7.614;2023-05-15T10:29:12;19.67;;;17.67;;
23670;SDS011;12012;51.998;7.614;2023-05-15T10:31:41;25.00;;;22.25;;
23670;SDS011;12012;51.998;7.614;2023-05-15T10:34:07;24.35;;;22.00;;
23670;SDS011;12012;51.998;7.614;2023-05-15T10:36:34;21.60;;;19.55;;
23670;SDS011;12012;51.998;7.614;2023-05-15T10:39:02;25.05;;;22.50;;
23670;SDS011;12012;51.998;7.614;2023-05-15T10:41:29;23.50;;;21.20;;
23670;SDS011;12012;51.998;7.614;2023-05-15T10:43:57;22.85;;;20.65;;
23670;SDS011;12012;51.998;7.614;2023-05-15T10:46:23;26.20;;;23.48;;
23670;SDS011;12012;51.998;7.614;2023-05-15T10:48:49;18.08;;;16.38;;
23670;SDS011;12012;51.998;7.614;2023-05-15T10:51:16;23.35;;;21.00;;
23670;SDS011;12012;51.998;7.614;2023-05-15T10:56:16;22.10;;;19.90;;
23670;SDS011;12012;51.998;7.614;2023-05-15T10:58:48;21.27;;;19.15;;
23670;SDS011;12012;51.998;7.614;2023-05-15T11:01:31;23.15;;;20.95;;
23670;SDS011;12012;51.998;7.614;2023-05-15T11:04:04;20.52;;;18.52;;
23670;SDS011;12012;51.998;7.614;2023-05-15T11:06:36;19.25;;;17.45;;
23670;SDS011;12012;51.998;7.614;2023-05-15T11:14:19;19.73;;;17.75;;
23670;SDS011;12012;51.998;7.614;2023-05-15T11:22:02;17.70;;;16.08;;
23670;SDS011;12012;51.998;7.614;2023-05-15T11:24:51;22.10;;;20.00;;
23670;SDS011;12012;51.998;7.614;2023-05-15T11:27:31;21.48;;;19.40;;
23670;SDS011;12012;51.998;7.614;2023-05-15T11:35:18;18.90;;;17.08;;
23670;SDS011;12012;51.998;7.614;2023-05-15T11:40:44;20.75;;;18.90;;
23670;SDS011;12012;51.998;7.614;2023-05-15T11:43:18;15.73;;;14.10;;
23670;SDS011;12012;51.998;7.614;2023-05-15T11:45:45;18.98;;;17.13;;
23670;SDS011;12012;51.998;7.614;2023-05-15T11:48:19;20.33;;;18.17;;
23670;SDS011;12012;51.998;7.614;2023-05-15T11:50:46;17.05;;;15.18;;
23670;SDS011;12012;51.998;7.614;2023-05-15T11:53:13;14.25;;;12.75;;
23670;SDS011;12012;51.998;7.614;2023-05-15T11:55:40;15.20;;;13.55;;
23670;SDS011;12012;51.998;7.614;2023-05-15T11:58:12;17.63;;;15.93;;
23670;SDS011;12012;51.998;7.614;2023-05-15T12:00:40;17.00;;;15.40;;
23670;SDS011;12012;51.998;7.614;2023-05-15T12:03:10;20.15;;;16.92;;
23670;SDS011;12012;51.998;7.614;2023-05-15T12:05:40;21.25;;;17.15;;
23670;SDS011;12012;51.998;7.614;2023-05-15T12:08:08;17.60;;;15.90;;
23670;SDS011;12012;51.998;7.614;2023-05-15T12:10:38;16.65;;;14.95;;
23670;SDS011;12012;51.998;7.614;2023-05-15T12:13:14;14.77;;;13.27;;
23670;SDS011;12012;51.998;7.614;2023-05-15T12:15:42;14.38;;;13.07;;
23670;SDS011;12012;51.998;7.614;2023-05-15T12:18:08;14.38;;;12.98;;
23670;SDS011;12012;51.998;7.614;2023-05-15T12:20:35;18.90;;;15.55;;
23670;SDS011;12012;51.998;7.614;2023-05-15T12:23:02;14.00;;;12.73;;
23670;SDS011;12012;51.998;7.614;2023-05-15T12:25:29;13.63;;;12.25;;
23670;SDS011;12012;51.998;7.614;2023-05-15T12:27:56;14.95;;;12.82;;
23670;SDS011;12012;51.998;7.614;2023-05-15T12:30:23;11.05;;;9.93;;
23670;SDS011;12012;51.998;7.614;2023-05-15T12:32:49;12.45;;;10.40;;
23670;SDS011;12012;51.998;7.614;2023-05-15T12:35:15;9.95;;;8.90;;
23670;SDS011;12012;51.998;7.614;2023-05-15T12:37:41;9.70;;;8.80;;
23670;SDS011;12012;51.998;7.614;2023-05-15T12:40:06;10.57;;;8.98;;
23670;SDS011;12012;51.998;7.614;2023-05-15T12:42:38;9.95;;;8.95;;
23670;SDS011;12012;51.998;7.614;2023-05-15T12:45:10;10.75;;;9.57;;
23670;SDS011;12012;51.998;7.614;2023-05-15T12:47:44;10.77;;;9.68;;
23670;SDS011;12012;51.998;7.614;2023-05-15T12:50:12;12.60;;;9.65;;
23670;SDS011;12012;51.998;7.614;2023-05-15T12:52:39;11.40;;;10.20;;
23670;SDS011;12012;51.998;7.614;2023-05-15T12:55:05;10.07;;;9.15;;
23670;SDS011;12012;51.998;7.614;2023-05-15T12:57:31;10.75;;;9.73;;
23670;SDS011;12012;51.998;7.614;2023-05-15T12:59:58;11.43;;;8.55;;
23670;SDS011;12012;51.998;7.614;2023-05-15T13:02:24;9.20;;;8.18;;
23670;SDS011;12012;51.998;7.614;2023-05-15T13:04:49;9.82;;;6.75;;
23670;SDS011;12012;51.998;7.614;2023-05-15T13:07:15;6.38;;;5.78;;
23670;SDS011;12012;51.998;7.614;2023-05-15T13:09:41;6.63;;;5.88;;
23670;SDS011;12012;51.998;7.614;2023-05-15T13:12:07;8.07;;;6.20;;
23670;SDS011;12012;51.998;7.614;2023-05-15T13:14:33;7.88;;;7.15;;
23670;SDS011;12012;51.998;7.614;2023-05-15T13:16:59;6.80;;;6.20;;
23670;SDS011;12012;51.998;7.614;2023-05-15T13:19:26;6.57;;;5.57;;
23670;SDS011;12012;51.998;7.614;2023-05-15T13:21:52;6.00;;;4.85;;
23670;SDS011;12012;51.998;7.614;2023-05-15T13:24:18;7.10;;;6.43;;
23670;SDS011;12012;51.998;7.614;2023-05-15T13:26:43;5.53;;;4.65;;
23670;SDS011;12012;51.998;7.614;2023-05-15T13:29:09;5.40;;;4.80;;
23670;SDS011;12012;51.998;7.614;2023-05-15T13:31:34;4.78;;;4.38;;
23670;SDS011;12012;51.998;7.614;2023-05-15T13:34:00;5.20;;;4.70;;
23670;SDS011;12012;51.998;7.614;2023-05-15T13:36:25;5.78;;;5.07;;
23670;SDS011;12012;51.998;7.614;2023-05-15T13:38:51;7.15;;;4.90;;
23670;SDS011;12012;51.998;7.614;2023-05-15T13:41:16;5.63;;;4.97;;
23670;SDS011;12012;51.998;7.614;2023-05-15T13:43:42;5.28;;;4.72;;
23670;SDS011;12012;51.998;7.614;2023-05-15T13:46:08;4.97;;;4.57;;
23670;SDS011;12012;51.998;7.614;2023-05-15T13:48:33;10.05;;;5.72;;
23670;SDS011;12012;51.998;7.614;2023-05-15T13:50:59;10.95;;;6.68;;
23670;SDS011;12012;51.998;7.614;2023-05-15T13:53:24;7.05;;;5.65;;
23670;SDS011;12012;51.998;7.614;2023-05-15T13:55:50;8.65;;;5.63;;
23670;SDS011;12012;51.998;7.614;2023-05-15T13:58:15;5.65;;;5.15;;
23670;SDS011;12012;51.998;7.614;2023-05-15T14:00:41;5.07;;;4.40;;
23670;SDS011;12012;51.998;7.614;2023-05-15T14:03:08;6.05;;;5.13;;
23670;SDS011;12012;51.998;7.614;2023-05-15T14:05:33;5.35;;;3.75;;
23670;SDS011;12012;51.998;7.614;2023-05-15T14:07:59;6.80;;;5.40;;
23670;SDS011;12012;51.998;7.614;2023-05-15T14:10:25;6.22;;;5.38;;
23670;SDS011;12012;51.998;7.614;2023-05-15T14:12:50;6.43;;;5.47;;
23670;SDS011;12012;51.998;7.614;2023-05-15T14:15:16;5.63;;;5.07;;
23670;SDS011;12012;51.998;7.614;2023-05-15T14:17:42;7.22;;;5.63;;
23670;SDS011;12012;51.998;7.614;2023-05-15T14:20:08;6.22;;;4.53;;
23670;SDS011;12012;51.998;7.614;2023-05-15T14:22:35;7.10;;;3.97;;
23670;SDS011;12012;51.998;7.614;2023-05-15T14:25:04;5.43;;;4.90;;
23670;SDS011;12012;51.998;7.614;2023-05-15T14:27:30;4.50;;;4.07;;
23670;SDS011;12012;51.998;7.614;2023-05-15T14:29:55;7.25;;;4.60;;
23670;SDS011;12012;51.998;7.614;2023-05-15T14:32:24;4.65;;;4.03;;
23670;SDS011;12012;51.998;7.614;2023-05-15T14:34:50;5.53;;;4.95;;
23670;SDS011;12012;51.998;7.614;2023-05-15T14:37:15;5.53;;;4.22;;
23670;SDS011;12012;51.998;7.614;2023-05-15T14:39:42;9.75;;;4.55;;
23670;SDS011;12012;51.998;7.614;2023-05-15T14:42:07;6.50;;;4.30;;
23670;SDS011;12012;51.998;7.614;2023-05-15T14:44:33;6.88;;;4.85;;
23670;SDS011;12012;51.998;7.614;2023-05-15T14:47:08;6.93;;;4.45;;
23670;SDS011;12012;51.998;7.614;2023-05-15T14:49:36;5.65;;;4.18;;
23670;SDS011;12012;51.998;7.614;2023-05-15T14:52:06;7.43;;;5.40;;
23670;SDS011;12012;51.998;7.614;2023-05-15T14:54:33;7.53;;;5.82;;
23670;SDS011;12012;51.998;7.614;2023-05-15T14:56:59;7.57;;;5.22;;
23670;SDS011;12012;51.998;7.614;2023-05-15T14:59:28;6.43;;;5.82;;
23670;SDS011;12012;51.998;7.614;2023-05-15T15:01:54;8.57;;;6.32;;
23670;SDS011;12012;51.998;7.614;2023-05-15T15:04:20;5.75;;;5.25;;
23670;SDS011;12012;51.998;7.614;2023-05-15T15:06:46;6.55;;;5.97;;